Time;durP1;ratioP1;P1;durP2;ratioP2;P2;SDS_P1;SDS_P2;PMS_P1;PMS_P2;Temp;Humidity;BMP_temperature;BMP_pressure;BME280_temperature;BME280_humidity;BME280_pressure;Samples;Min_cycle;Max_cycle;Signal;HPM_P1;HPM_P2
2022/12/14 00:00:52;;;;;;;;;48.75;40.50;;;;;2.98;53.31;99622.34;5060593;27;45564;-49
2022/12/14 00:03:18;;;;;;;;;45.25;39.25;;;;;2.99;53.13;99623.19;5060548;28;45381;-45
2022/12/14 00:05:44;;;;;;;;;48.25;40.50;;;;;2.99;53.29;99611.06;5060073;27;45272;-45
2022/12/14 00:08:10;;;;;;;;;47.75;38.00;;;;;3.02;53.26;99599.81;5060511;28;45369;-46
2022/12/14 00:10:37;;;;;;;;;42.75;36.75;;;;;3.01;53.38;99606.75;5060578;28;45590;-45
2022/12/14 00:13:04;;;;;;;;;48.50;41.00;;;;;3.03;53.33;99620.59;5060360;28;45244;-47
2022/12/14 00:15:29;;;;;;;;;44.75;36.75;;;;;3.06;53.23;99609.34;5060313;28;45457;-45
2022/12/14 00:17:55;;;;;;;;;49.75;38.00;;;;;3.07;53.45;99611.06;5075917;28;45391;-46
2022/12/14 00:20:20;;;;;;;;;42.00;36.00;;;;;3.09;53.56;99598.94;5060205;28;45478;-45
2022/12/14 00:22:46;;;;;;;;;37.75;35.00;;;;;3.10;53.12;99603.28;5060240;27;45450;-48
2022/12/14 00:25:12;;;;;;;;;39.75;36.25;;;;;3.10;53.20;99605.88;5060215;28;45339;-45
2022/12/14 00:27:45;;;;;;;;;39.50;34.75;;;;;3.15;53.64;99606.72;5060408;28;45275;-45
2022/12/14 00:30:12;;;;;;;;;41.75;37.50;;;;;3.17;53.14;99599.81;5075740;28;45272;-48
2022/12/14 00:32:38;;;;;;;;;44.75;38.00;;;;;3.18;53.55;99592.88;5075787;27;45706;-45
2022/12/14 00:35:03;;;;;;;;;43.25;37.00;;;;;3.18;53.46;99598.94;5059823;28;45342;-46
2022/12/14 00:37:29;;;;;;;;;45.50;35.50;;;;;3.22;53.48;99599.78;5075710;28;45387;-45
2022/12/14 00:39:54;;;;;;;;;41.75;34.50;;;;;3.13;53.67;99576.44;5059995;28;45493;-45
2022/12/14 00:42:19;;;;;;;;;45.75;40.00;;;;;3.22;53.03;99592.88;5059853;28;45421;-48
2022/12/14 00:44:45;;;;;;;;;39.75;34.25;;;;;3.24;53.25;99585.91;5056653;28;45328;-45
2022/12/14 00:47:10;;;;;;;;;43.25;36.50;;;;;3.25;53.61;99579.84;5063273;28;45352;-45
2022/12/14 00:49:36;;;;;;;;;50.50;38.50;;;;;3.26;53.34;99575.53;5058356;28;45391;-49
2022/12/14 00:52:01;;;;;;;;;45.50;38.00;;;;;3.28;53.83;99578.13;5059496;28;46534;-45
2022/12/14 00:54:27;;;;;;;;;38.00;33.75;;;;;3.28;53.77;99570.34;5059610;28;45170;-45
2022/12/14 00:56:52;;;;;;;;;41.50;35.00;;;;;3.30;53.88;99569.47;5059822;28;45162;-45
2022/12/14 00:59:18;;;;;;;;;41.75;35.25;;;;;3.29;53.21;99570.31;5059526;28;45445;-46
2022/12/14 01:01:43;;;;;;;;;51.75;39.00;;;;;3.31;53.48;99566.00;5059682;28;45916;-45
2022/12/14 01:04:20;;;;;;;;;42.75;38.50;;;;;3.31;53.62;99557.34;5075089;28;45442;-46
2022/12/14 01:06:47;;;;;;;;;44.75;37.25;;;;;3.35;53.92;99564.25;5059548;28;45473;-45
2022/12/14 01:09:12;;;;;;;;;41.75;36.00;;;;;3.36;53.40;99561.66;5059373;28;45357;-47
2022/12/14 01:11:38;;;;;;;;;42.25;37.50;;;;;3.38;53.49;99569.44;5075130;27;46649;-48
2022/12/14 01:14:04;;;;;;;;;46.75;38.75;;;;;3.39;53.93;99576.38;5059529;28;45359;-44
2022/12/14 01:16:29;;;;;;;;;38.00;34.50;;;;;3.41;53.48;99585.03;5059841;28;45284;-44
2022/12/14 01:18:55;;;;;;;;;42.75;36.75;;;;;3.40;53.60;99591.94;5059225;27;45569;-47
2022/12/14 01:21:22;;;;;;;;;48.25;38.25;;;;;3.43;53.56;99588.47;5059268;28;46119;-45
2022/12/14 01:23:52;;;;;;;;;42.00;37.50;;;;;3.45;53.65;99606.63;5059239;28;45230;-49
2022/12/14 01:26:18;;;;;;;;;49.50;41.25;;;;;3.46;53.87;99611.84;5059643;28;45480;-46
2022/12/14 01:28:45;;;;;;;;;48.50;39.00;;;;;3.44;53.96;99605.78;5076300;28;45516;-45
2022/12/14 01:31:14;;;;;;;;;43.50;37.75;;;;;3.47;53.88;99618.78;5062799;28;46232;-46
2022/12/14 01:33:39;;;;;;;;;51.25;39.00;;;;;3.50;53.28;99617.91;5062867;28;45279;-48
2022/12/14 01:36:07;;;;;;;;;52.50;42.00;;;;;3.49;53.60;99603.19;5062793;28;45248;-45
2022/12/14 01:38:32;;;;;;;;;39.25;37.50;;;;;3.50;53.57;99610.97;5078484;27;45403;-47
2022/12/14 01:40:58;;;;;;;;;50.75;43.75;;;;;3.50;53.78;99608.34;5062671;28;45339;-46
2022/12/14 01:43:23;;;;;;;;;41.00;38.00;;;;;3.52;53.78;99618.75;5062635;28;45301;-47
2022/12/14 01:45:54;;;;;;;;;40.50;36.00;;;;;3.54;53.81;99617.00;5062730;28;45470;-47
2022/12/14 01:48:21;;;;;;;;;33.50;29.75;;;;;3.53;53.70;99605.75;5062556;28;45248;-48
2022/12/14 01:50:46;;;;;;;;;39.50;37.00;;;;;3.54;54.01;99604.88;5062320;28;46132;-48
2022/12/14 01:53:19;;;;;;;;;48.50;39.75;;;;;3.55;53.83;99593.63;5062222;28;45477;-44
2022/12/14 01:55:53;;;;;;;;;46.50;38.00;;;;;3.54;53.98;99591.03;5062623;28;45239;-44
2022/12/14 01:58:25;;;;;;;;;37.50;32.50;;;;;3.53;53.93;99605.75;5061137;28;45304;-45
2022/12/14 02:00:57;;;;;;;;;47.50;38.75;;;;;3.53;53.78;99610.09;5077824;28;46587;-44
2022/12/14 02:03:36;;;;;;;;;49.75;38.25;;;;;3.47;53.83;99597.09;5062317;28;45414;-44
2022/12/14 02:06:08;;;;;;;;;44.50;38.00;;;;;3.50;54.52;99594.53;5062324;28;45433;-46
2022/12/14 02:08:34;;;;;;;;;47.75;37.75;;;;;3.49;53.94;99608.38;5062145;28;45401;-45
2022/12/14 02:11:01;;;;;;;;;43.00;34.75;;;;;3.49;54.16;99610.97;5062011;28;45393;-45
2022/12/14 02:13:31;;;;;;;;;46.75;40.25;;;;;3.48;54.13;99617.88;5062168;28;45306;-45
2022/12/14 02:15:57;;;;;;;;;42.75;37.75;;;;;3.46;54.17;99634.34;5062612;28;45310;-44
2022/12/14 02:18:26;;;;;;;;;46.50;35.75;;;;;3.47;54.08;99629.16;5062629;27;45548;-44
2022/12/14 02:20:51;;;;;;;;;48.50;40.75;;;;;3.46;54.46;99609.25;5061980;28;46324;-48
2022/12/14 02:23:45;;;;;;;;;51.00;41.25;;;;;3.45;54.00;99612.72;5061843;28;45226;-47
2022/12/14 02:26:28;;;;;;;;;45.50;38.75;;;;;3.45;54.03;99602.31;5062156;28;45347;-48
2022/12/14 02:29:05;;;;;;;;;43.00;37.25;;;;;3.45;53.98;99610.13;5062065;28;45330;-46
2022/12/14 02:31:59;;;;;;;;;45.75;40.00;;;;;3.41;54.35;99606.66;5077272;28;47235;-47
2022/12/14 02:34:31;;;;;;;;;47.50;39.25;;;;;3.41;54.66;99595.41;5076460;28;45387;-46
2022/12/14 02:37:06;;;;;;;;;44.75;39.50;;;;;3.38;53.96;99583.31;5061847;28;45354;-44
2022/12/14 02:39:49;;;;;;;;;44.00;39.75;;;;;3.36;54.76;99572.03;5061644;28;45420;-45
2022/12/14 02:42:43;;;;;;;;;54.50;36.75;;;;;3.32;54.64;99562.53;5061582;28;45267;-46
2022/12/14 02:45:23;;;;;;;;;56.25;41.00;;;;;3.33;54.94;99560.78;5030198;28;45599;-46
2022/12/14 02:47:58;;;;;;;;;48.50;39.75;;;;;3.31;54.45;99550.44;5061538;28;45331;-46
2022/12/14 02:50:27;;;;;;;;;47.25;41.25;;;;;3.28;54.40;99521.00;5061292;27;45312;-45
2022/12/14 02:53:08;;;;;;;;;47.00;38.25;;;;;3.25;54.66;99532.25;5076387;28;45624;-45
2022/12/14 02:55:39;;;;;;;;;48.00;41.25;;;;;3.23;54.95;99534.00;5061473;28;45273;-47
2022/12/14 02:58:08;;;;;;;;;41.75;37.50;;;;;3.22;54.49;99519.28;5061611;28;45286;-47
2022/12/14 03:00:37;;;;;;;;;50.00;39.50;;;;;3.19;54.97;99503.72;5061113;28;45383;-46
2022/12/14 03:03:04;;;;;;;;;41.25;37.50;;;;;3.15;54.92;99504.63;5060062;28;45527;-49
2022/12/14 03:05:30;;;;;;;;;50.25;40.50;;;;;3.13;54.82;99506.34;5043187;28;45382;-45
2022/12/14 03:08:03;;;;;;;;;53.50;44.00;;;;;3.09;54.96;99501.19;5061498;28;45423;-46
2022/12/14 03:10:36;;;;;;;;;55.75;46.00;;;;;3.09;55.30;99511.56;5061163;28;45537;-45
2022/12/14 03:13:28;;;;;;;;;46.50;38.50;;;;;3.07;55.00;99508.09;5061127;28;46238;-49
2022/12/14 03:16:01;;;;;;;;;56.25;41.00;;;;;3.06;55.19;99508.09;5061102;28;45338;-47
2022/12/14 03:18:34;;;;;;;;;46.50;38.50;;;;;3.05;54.80;99503.78;5061335;28;45305;-46
2022/12/14 03:21:00;;;;;;;;;41.00;37.75;;;;;3.04;55.26;99500.28;5060935;28;45224;-48
2022/12/14 03:23:32;;;;;;;;;47.75;38.75;;;;;3.03;55.17;99510.69;5060966;28;45469;-49
2022/12/14 03:25:57;;;;;;;;;39.50;37.00;;;;;3.03;54.84;99513.28;5060882;28;45229;-48
2022/12/14 03:28:36;;;;;;;;;53.25;44.00;;;;;3.01;55.19;99515.91;5060966;28;45177;-45
2022/12/14 03:31:06;;;;;;;;;50.25;41.00;;;;;2.99;55.32;99520.22;5076608;28;45355;-47
2022/12/14 03:33:36;;;;;;;;;47.75;38.50;;;;;2.99;55.51;99522.81;5060716;28;46151;-46
2022/12/14 03:36:01;;;;;;;;;51.50;40.75;;;;;2.98;55.37;99510.72;5060615;28;45421;-47
2022/12/14 03:38:41;;;;;;;;;51.25;41.00;;;;;2.97;55.01;99508.13;5060878;28;45318;-47
2022/12/14 03:41:31;;;;;;;;;49.75;40.00;;;;;2.96;55.60;99514.19;5060566;28;45255;-45
2022/12/14 03:44:37;;;;;;;;;41.00;36.25;;;;;2.94;55.05;99509.00;5060764;28;46941;-45
2022/12/14 03:47:17;;;;;;;;;33.25;31.00;;;;;2.94;55.68;99501.19;5060739;28;45408;-47
2022/12/14 03:49:55;;;;;;;;;43.00;37.75;;;;;2.92;55.26;99496.03;5060636;28;45426;-45
2022/12/14 03:52:27;;;;;;;;;52.50;42.00;;;;;2.91;55.65;99489.09;5059813;28;45347;-46
2022/12/14 03:55:31;;;;;;;;;51.25;41.50;;;;;2.91;55.49;99496.03;5060629;28;45305;-48
2022/12/14 03:58:34;;;;;;;;;43.25;40.00;;;;;2.90;55.69;99474.38;5060521;28;45318;-48
2022/12/14 04:00:59;;;;;;;;;43.50;38.25;;;;;2.89;55.26;99467.50;5060480;28;45353;-46
2022/12/14 04:04:00;;;;;;;;;46.00;36.50;;;;;2.89;55.59;99464.91;5060524;28;45328;-45
2022/12/14 04:06:34;;;;;;;;;47.25;37.00;;;;;2.89;55.68;99472.69;4997889;28;46220;-46
2022/12/14 04:09:24;;;;;;;;;47.50;39.25;;;;;2.89;55.81;99471.81;5038882;28;45450;-45
2022/12/14 04:18:55;;;;;;;;;51.25;41.00;;;;;2.88;55.85;99457.09;5060560;28;45326;-49
2022/12/14 04:20:48;;;;;;;;;42.50;39.00;;;;;2.86;56.01;99454.50;5060100;28;45316;-49
2022/12/14 04:26:14;;;;;;;;;43.75;39.25;;;;;2.88;55.78;99457.97;5060250;28;45312;-47
2022/12/14 04:31:33;;;;;;;;;41.75;37.50;;;;;2.90;55.93;99448.44;5060005;28;45375;-46
2022/12/14 04:34:04;;;;;;;;;38.75;30.00;;;;;2.91;55.73;99451.91;5060371;28;45283;-49
2022/12/14 04:36:54;;;;;;;;;48.50;41.00;;;;;2.91;55.61;99451.91;5059872;28;45319;-49
2022/12/14 04:39:28;;;;;;;;;44.00;37.25;;;;;2.92;56.15;99448.47;5060136;28;45320;-50
2022/12/14 04:41:58;;;;;;;;;55.25;39.00;;;;;2.94;56.09;99449.28;5059898;28;45327;-49
2022/12/14 04:44:30;;;;;;;;;54.00;42.25;;;;;2.95;56.01;99455.38;5059035;27;45170;-48
2022/12/14 04:46:57;;;;;;;;;45.00;39.50;;;;;2.96;55.94;99459.69;5060097;28;45230;-47
2022/12/14 04:49:26;;;;;;;;;43.25;38.00;;;;;2.96;55.77;99452.75;5059715;28;46087;-44
2022/12/14 04:52:02;;;;;;;;;41.00;35.50;;;;;2.97;56.18;99456.19;5059538;28;45400;-45
2022/12/14 04:54:36;;;;;;;;;39.50;33.50;;;;;2.97;55.91;99461.41;5059992;28;45312;-46
2022/12/14 04:57:09;;;;;;;;;43.50;38.00;;;;;2.97;55.75;99480.44;5059723;28;45551;-47
2022/12/14 04:59:35;;;;;;;;;38.75;36.25;;;;;2.95;56.17;99479.56;5059861;28;46407;-48
2022/12/14 05:02:19;;;;;;;;;46.25;37.00;;;;;2.97;56.47;99484.75;5059863;28;45391;-46
2022/12/14 05:05:03;;;;;;;;;49.50;40.25;;;;;2.96;56.34;99483.06;5078280;28;45284;-47
2022/12/14 05:08:00;;;;;;;;;38.50;35.00;;;;;2.95;56.42;99474.38;5063260;28;45292;-46
2022/12/14 05:10:46;;;;;;;;;48.25;38.25;;;;;2.95;56.47;99479.56;5063064;28;46958;-49
2022/12/14 05:13:25;;;;;;;;;48.50;37.25;;;;;2.91;56.33;99476.13;5063193;28;45295;-45
2022/12/14 05:15:54;;;;;;;;;48.50;40.50;;;;;2.95;56.07;99476.13;5063571;28;45250;-47
2022/12/14 05:18:20;;;;;;;;;47.25;38.25;;;;;2.95;56.39;99476.13;5063105;27;45428;-48
2022/12/14 05:20:46;;;;;;;;;40.75;36.25;;;;;2.96;56.17;99480.47;5062855;28;46098;-46
2022/12/14 05:23:11;;;;;;;;;45.00;38.25;;;;;2.96;56.56;99475.25;5063025;28;45317;-45
2022/12/14 05:25:37;;;;;;;;;46.50;37.75;;;;;2.96;56.15;99472.66;5078901;28;45363;-45
2022/12/14 05:28:02;;;;;;;;;41.25;38.25;;;;;2.95;56.35;99470.94;5062842;28;45516;-48
2022/12/14 05:30:28;;;;;;;;;50.75;39.50;;;;;2.95;56.17;99465.75;5063163;28;46956;-46
2022/12/14 05:32:53;;;;;;;;;32.25;27.00;;;;;2.93;56.18;99455.34;5062765;28;45325;-49
2022/12/14 05:35:19;;;;;;;;;41.75;32.25;;;;;2.92;56.70;99464.88;5062964;28;45311;-47
2022/12/14 05:37:44;;;;;;;;;50.00;38.75;;;;;2.93;56.08;99469.19;5062838;28;45715;-50
2022/12/14 05:40:11;;;;;;;;;52.25;41.25;;;;;2.94;56.20;99470.06;5062909;28;47248;-45
2022/12/14 05:42:36;;;;;;;;;46.50;40.25;;;;;2.94;56.32;99464.88;5062817;28;45305;-45
2022/12/14 05:45:02;;;;;;;;;45.25;37.50;;;;;2.94;56.16;99464.88;5062941;28;45311;-46
2022/12/14 05:47:27;;;;;;;;;44.75;39.00;;;;;2.93;56.57;99457.94;5062682;28;45359;-45
2022/12/14 05:49:53;;;;;;;;;48.75;40.75;;;;;2.92;56.49;99472.66;5062486;28;45232;-45
2022/12/14 05:52:19;;;;;;;;;51.75;40.75;;;;;2.94;56.74;99480.44;5078255;28;45492;-47
2022/12/14 05:54:44;;;;;;;;;45.00;38.75;;;;;2.93;56.35;99487.38;5062840;28;45435;-46
2022/12/14 05:57:10;;;;;;;;;38.75;36.75;;;;;2.95;56.74;99487.38;5062399;28;45457;-47
2022/12/14 05:59:35;;;;;;;;;44.75;40.00;;;;;2.95;56.17;99486.50;5062500;28;46318;-48
2022/12/14 06:02:01;;;;;;;;;40.75;36.00;;;;;2.95;56.19;99489.94;5078044;28;45351;-46
2022/12/14 06:04:26;;;;;;;;;48.25;37.50;;;;;2.93;56.68;99496.88;5062691;28;45259;-49
2022/12/14 06:06:51;;;;;;;;;42.75;37.25;;;;;2.96;56.81;99503.81;5062153;28;45331;-47
2022/12/14 06:09:18;;;;;;;;;46.75;38.75;;;;;2.97;56.42;99500.31;5062193;28;45442;-45
2022/12/14 06:11:44;;;;;;;;;53.50;41.50;;;;;2.98;56.87;99494.28;5062174;28;45393;-48
2022/12/14 06:14:11;;;;;;;;;45.75;38.75;;;;;2.99;56.35;99506.38;5077476;28;45346;-47
2022/12/14 06:16:40;;;;;;;;;32.50;26.75;;;;;2.98;56.99;99509.84;5062349;28;45535;-45
2022/12/14 06:19:06;;;;;;;;;54.75;44.25;;;;;2.99;56.47;99511.56;5062107;28;47242;-47
2022/12/14 06:21:34;;;;;;;;;40.25;33.50;;;;;2.99;56.49;99507.25;5061904;28;45406;-47
2022/12/14 06:24:00;;;;;;;;;57.75;41.75;;;;;3.00;56.56;99506.38;5062473;28;45306;-45
2022/12/14 06:26:26;;;;;;;;;41.50;38.00;;;;;3.00;57.07;99500.34;5061921;28;45569;-45
2022/12/14 06:28:52;;;;;;;;;45.25;38.25;;;;;3.00;56.57;99500.34;5059804;28;46031;-48
2022/12/14 06:31:23;;;;;;;;;43.75;37.00;;;;;2.99;56.47;99503.78;5045812;28;45216;-44
2022/12/14 06:33:49;;;;;;;;;47.75;37.75;;;;;3.02;56.75;99503.75;5059015;28;45311;-48
2022/12/14 06:36:22;;;;;;;;;47.00;41.00;;;;;3.02;56.61;99501.16;5061482;28;45393;-45
2022/12/14 06:38:52;;;;;;;;;44.75;38.00;;;;;3.02;57.08;99504.66;5048771;28;46344;-46
2022/12/14 06:41:18;;;;;;;;;47.25;37.50;;;;;3.03;56.57;99508.97;5061368;28;45219;-46
2022/12/14 06:43:43;;;;;;;;;49.75;41.50;;;;;3.03;57.11;99510.69;5061891;28;45244;-46
2022/12/14 06:46:10;;;;;;;;;50.25;41.00;;;;;3.03;56.63;99505.50;5074192;28;45301;-44
2022/12/14 06:48:35;;;;;;;;;44.50;37.50;;;;;3.03;56.91;99518.47;5054553;28;45288;-47
2022/12/14 06:51:02;;;;;;;;;46.75;39.75;;;;;3.03;56.82;99514.16;5061131;28;45308;-44
2022/12/14 06:53:29;;;;;;;;;48.75;38.75;;;;;3.01;57.20;99507.25;5061591;28;45347;-48
2022/12/14 06:56:07;;;;;;;;;47.00;39.50;;;;;3.03;56.60;99515.88;5061276;28;45269;-43
2022/12/14 06:58:33;;;;;;;;;49.00;38.00;;;;;3.04;56.55;99515.88;5061318;28;45449;-49
2022/12/14 07:01:03;;;;;;;;;49.50;42.50;;;;;3.03;57.18;99511.56;5061247;28;45308;-43
2022/12/14 07:03:29;;;;;;;;;49.75;39.25;;;;;3.04;56.61;99515.03;5060607;28;45347;-45
2022/12/14 07:05:56;;;;;;;;;48.75;37.50;;;;;3.00;56.72;99511.56;5061018;28;45332;-44
2022/12/14 07:08:22;;;;;;;;;55.00;42.25;;;;;3.03;57.40;99518.47;5061373;28;46346;-47
2022/12/14 07:10:47;;;;;;;;;48.00;39.50;;;;;3.04;57.15;99525.41;5061228;28;45428;-49
2022/12/14 07:13:12;;;;;;;;;47.75;40.75;;;;;3.03;57.38;99523.66;5061465;28;45236;-47
2022/12/14 07:15:38;;;;;;;;;47.00;38.75;;;;;3.03;57.39;99531.47;5061262;28;45360;-45
2022/12/14 07:18:03;;;;;;;;;53.25;41.50;;;;;3.02;57.10;99535.78;5061449;28;45219;-48
2022/12/14 07:20:29;;;;;;;;;58.50;46.75;;;;;3.02;56.93;99535.78;5060958;28;45263;-45
2022/12/14 07:22:54;;;;;;;;;59.00;46.75;;;;;3.02;56.98;99546.19;5061621;28;45271;-45
2022/12/14 07:25:19;;;;;;;;;55.50;43.50;;;;;3.01;57.11;99546.19;5060718;28;45485;-45
2022/12/14 07:27:45;;;;;;;;;51.50;41.25;;;;;3.02;57.09;99563.47;5060223;28;45417;-46
2022/12/14 07:30:10;;;;;;;;;37.00;29.25;;;;;3.00;57.51;99558.28;5061042;28;45232;-47
2022/12/14 07:32:36;;;;;;;;;50.00;42.25;;;;;3.01;57.00;99565.22;5060880;28;45499;-45
2022/12/14 07:35:01;;;;;;;;;49.75;39.75;;;;;2.97;57.43;99557.44;5060515;28;45537;-44
2022/12/14 07:37:26;;;;;;;;;49.75;42.00;;;;;3.01;57.03;99574.75;5060749;28;46237;-46
2022/12/14 07:39:51;;;;;;;;;46.75;40.50;;;;;3.02;57.29;99576.44;5060713;28;45328;-44
2022/12/14 07:42:17;;;;;;;;;50.25;41.00;;;;;3.01;57.30;99578.19;5060716;28;45386;-46
2022/12/14 07:44:42;;;;;;;;;47.25;39.00;;;;;3.02;57.72;99581.63;5060966;28;45315;-45
2022/12/14 07:47:07;;;;;;;;;51.75;41.25;;;;;3.02;57.29;99587.72;5060627;28;46025;-45
2022/12/14 07:49:33;;;;;;;;;51.00;42.00;;;;;3.01;57.15;99585.13;5060519;28;45383;-46
2022/12/14 07:51:58;;;;;;;;;55.50;42.75;;;;;3.02;57.21;99585.13;5060774;28;45391;-45
2022/12/14 07:54:25;;;;;;;;;46.00;40.50;;;;;3.00;57.51;99584.25;5060768;28;45596;-45
2022/12/14 07:56:50;;;;;;;;;50.25;39.00;;;;;3.01;57.53;99590.31;5060558;28;46945;-45
2022/12/14 07:59:16;;;;;;;;;47.50;38.50;;;;;3.00;57.56;99586.84;5060788;28;45307;-44
2022/12/14 08:01:42;;;;;;;;;55.25;43.00;;;;;3.01;57.25;99588.56;5060543;28;45236;-46
2022/12/14 08:04:10;;;;;;;;;55.50;44.00;;;;;2.97;57.68;99592.06;5060525;28;45445;-46
2022/12/14 08:06:38;;;;;;;;;52.00;43.00;;;;;3.00;57.67;99599.81;5060157;28;46395;-48
2022/12/14 08:09:05;;;;;;;;;57.00;43.50;;;;;3.03;57.78;99602.44;5060456;28;45264;-46
2022/12/14 08:11:30;;;;;;;;;36.25;34.50;;;;;3.02;57.57;99598.09;5060409;28;45472;-46
2022/12/14 08:14:04;;;;;;;;;43.75;38.25;;;;;3.04;57.55;99592.91;5060518;28;45319;-46
2022/12/14 08:16:31;;;;;;;;;48.75;42.00;;;;;3.03;57.38;99598.94;5060349;28;45419;-46
2022/12/14 08:18:58;;;;;;;;;56.50;44.00;;;;;3.04;57.77;99595.50;5060486;28;45182;-49
2022/12/14 08:21:25;;;;;;;;;51.75;44.00;;;;;3.05;58.19;99597.22;5060309;28;45524;-44
2022/12/14 08:23:53;;;;;;;;;48.00;40.25;;;;;3.03;57.78;99598.94;5060300;27;45244;-46
2022/12/14 08:26:19;;;;;;;;;49.25;39.75;;;;;3.07;57.69;99604.13;5060202;28;46365;-49
2022/12/14 08:28:45;;;;;;;;;41.25;35.25;;;;;3.10;58.04;99605.88;5060082;27;45370;-45
2022/12/14 08:31:13;;;;;;;;;49.75;41.50;;;;;3.09;57.72;99597.22;5060140;28;45301;-45
2022/12/14 08:33:39;;;;;;;;;51.50;40.75;;;;;3.09;58.02;99604.13;5060288;28;45215;-47
2022/12/14 08:36:13;;;;;;;;;48.25;39.50;;;;;3.13;57.67;99600.66;5059746;28;46189;-48
2022/12/14 08:38:40;;;;;;;;;50.50;41.25;;;;;3.13;57.79;99602.41;5060082;28;45244;-47
2022/12/14 08:41:11;;;;;;;;;59.00;43.50;;;;;3.14;57.65;99607.56;5059951;28;45174;-45
2022/12/14 08:43:37;;;;;;;;;59.50;41.75;;;;;3.17;57.76;99609.31;5060277;28;45402;-45
2022/12/14 08:46:02;;;;;;;;;52.00;41.50;;;;;3.17;58.14;99611.91;5059808;28;45212;-45
2022/12/14 08:48:28;;;;;;;;;45.00;39.25;;;;;3.20;58.03;99617.09;5059967;28;45430;-48
2022/12/14 08:50:53;;;;;;;;;51.75;41.75;;;;;3.22;57.75;99618.81;5059742;28;45260;-45
2022/12/14 08:53:20;;;;;;;;;53.25;41.25;;;;;3.22;58.15;99621.44;5059621;28;45425;-46
2022/12/14 08:55:45;;;;;;;;;48.00;37.75;;;;;3.25;58.17;99611.03;5059722;28;46273;-45
2022/12/14 08:58:11;;;;;;;;;47.25;40.00;;;;;3.27;57.57;99602.38;5059782;28;45168;-48
2022/12/14 09:00:39;;;;;;;;;51.00;44.00;;;;;3.29;58.49;99605.84;5059988;28;45326;-46
2022/12/14 09:03:05;;;;;;;;;53.25;42.00;;;;;3.32;57.91;99613.59;5075389;27;45494;-46
2022/12/14 09:05:32;;;;;;;;;55.25;44.00;;;;;3.36;57.96;99623.13;5059231;28;45370;-45
2022/12/14 09:07:58;;;;;;;;;45.50;41.00;;;;;3.39;58.46;99623.97;5059813;28;45308;-46
2022/12/14 09:10:23;;;;;;;;;48.25;39.25;;;;;3.41;58.23;99619.63;5059842;28;45152;-46
2022/12/14 09:12:48;;;;;;;;;54.00;43.75;;;;;3.49;57.83;99635.19;5059533;28;45165;-46
2022/12/14 09:15:13;;;;;;;;;53.50;43.75;;;;;3.53;58.02;99642.09;5059388;28;46115;-46
2022/12/14 09:17:39;;;;;;;;;51.75;43.75;;;;;3.57;57.82;99636.06;5059650;28;45243;-47
2022/12/14 09:20:05;;;;;;;;;51.75;40.75;;;;;3.63;58.38;99632.56;5059367;28;45447;-46
2022/12/14 09:22:31;;;;;;;;;53.75;45.00;;;;;3.65;57.96;99625.63;5059448;28;45427;-48
2022/12/14 09:24:57;;;;;;;;;46.75;40.75;;;;;3.68;58.17;99633.41;5059341;28;46323;-48
2022/12/14 09:27:22;;;;;;;;;53.75;42.75;;;;;3.73;57.92;99652.44;5059356;28;45351;-52
2022/12/14 09:29:49;;;;;;;;;58.50;44.00;;;;;3.77;58.02;99652.44;5059543;28;45361;-44
2022/12/14 09:32:14;;;;;;;;;49.50;43.75;;;;;3.81;58.52;99655.03;5074937;28;46109;-45
2022/12/14 09:34:40;;;;;;;;;56.25;44.75;;;;;3.85;57.89;99668.84;5059022;28;46247;-45
2022/12/14 09:37:07;;;;;;;;;50.25;42.00;;;;;3.88;58.40;99677.50;5059368;28;45311;-45
2022/12/14 09:39:34;;;;;;;;;57.25;46.00;;;;;3.90;58.36;99683.56;5075122;28;45301;-47
2022/12/14 09:42:20;;;;;;;;;57.75;47.75;;;;;3.97;58.20;99683.56;5059052;28;45460;-45
2022/12/14 09:45:02;;;;;;;;;55.50;42.50;;;;;3.99;58.36;99676.63;5047186;28;46310;-45
2022/12/14 09:47:45;;;;;;;;;50.25;41.75;;;;;4.03;58.66;99678.34;5059131;28;45296;-46
2022/12/14 09:50:17;;;;;;;;;59.75;45.25;;;;;4.04;58.46;99669.66;5061995;27;45513;-48
2022/12/14 09:52:50;;;;;;;;;45.00;40.00;;;;;4.08;57.99;99671.38;5078062;28;45861;-48
2022/12/14 09:55:21;;;;;;;;;56.00;45.00;;;;;4.15;58.12;99675.69;5062446;28;45240;-45
2022/12/14 09:57:51;;;;;;;;;63.25;48.75;;;;;4.21;58.17;99680.84;5077709;28;45262;-44
2022/12/14 10:00:18;;;;;;;;;57.50;44.50;;;;;4.26;58.89;99675.59;5062556;27;45306;-45
2022/12/14 10:02:56;;;;;;;;;58.00;43.50;;;;;4.23;58.82;99654.81;5062593;28;45392;-46
2022/12/14 10:05:31;;;;;;;;;61.00;47.75;;;;;4.37;58.23;99668.59;5062193;28;46146;-48
2022/12/14 10:08:09;;;;;;;;;47.50;36.50;;;;;4.42;58.08;99658.19;5062347;28;45209;-50
2022/12/14 10:10:55;;;;;;;;;62.75;48.00;;;;;4.48;58.34;99665.94;5062432;28;45208;-46
2022/12/14 10:13:26;;;;;;;;;59.00;45.25;;;;;4.55;58.21;99662.44;5060527;28;45569;-44
2022/12/14 10:16:29;;;;;;;;;61.00;48.25;;;;;4.63;58.35;99671.91;5062298;28;45387;-46
2022/12/14 10:19:16;;;;;;;;;57.00;46.75;;;;;4.71;58.55;99660.56;5045949;28;45471;-45
2022/12/14 10:21:45;;;;;;;;;55.00;45.25;;;;;4.79;58.71;99665.75;5062149;28;45260;-44
2022/12/14 10:24:22;;;;;;;;;59.50;45.25;;;;;4.91;58.35;99663.91;5060876;28;45486;-45
2022/12/14 10:26:54;;;;;;;;;54.50;42.00;;;;;5.02;58.60;99669.91;5061935;28;46213;-46
2022/12/14 10:29:42;;;;;;;;;44.75;39.50;;;;;5.25;58.58;99671.44;5061886;28;45405;-49
2022/12/14 10:32:28;;;;;;;;;56.75;47.25;;;;;5.42;58.40;99661.72;5057493;28;45286;-47
2022/12/14 10:34:53;;;;;;;;;57.00;45.75;;;;;5.59;58.43;99673.69;5061858;28;45401;-46
2022/12/14 10:37:25;;;;;;;;;51.75;43.25;;;;;5.74;58.58;99668.31;5061869;28;45399;-46
2022/12/14 10:40:28;;;;;;;;;56.25;45.75;;;;;5.95;58.69;99676.75;5061924;28;45184;-48
2022/12/14 10:43:27;;;;;;;;;65.00;48.75;;;;;6.11;58.67;99661.81;4999622;28;45317;-45
2022/12/14 10:46:14;;;;;;;;;59.00;46.00;;;;;6.26;58.59;99660.72;5057428;28;45341;-45
2022/12/14 10:48:49;;;;;;;;;62.00;47.50;;;;;6.40;58.45;99665.75;5061820;28;46121;-45
2022/12/14 10:51:21;;;;;;;;;59.75;48.00;;;;;6.50;58.46;99654.28;5076871;27;45330;-47
2022/12/14 10:53:55;;;;;;;;;53.00;44.00;;;;;6.63;58.37;99660.22;5061852;28;45327;-45
2022/12/14 10:56:27;;;;;;;;;55.25;46.00;;;;;6.76;58.56;99660.88;5061903;28;45558;-45
2022/12/14 10:59:17;;;;;;;;;55.75;43.50;;;;;6.89;58.22;99666.75;5061484;28;45271;-46
2022/12/14 11:01:50;;;;;;;;;59.50;46.50;;;;;6.97;58.29;99667.50;5061442;28;45364;-48
2022/12/14 11:04:22;;;;;;;;;52.50;43.75;;;;;7.03;58.33;99661.31;5061573;28;45433;-44
2022/12/14 11:06:47;;;;;;;;;55.25;43.00;;;;;7.09;58.22;99667.28;5061433;28;45165;-45
2022/12/14 11:09:23;;;;;;;;;54.00;41.75;;;;;7.13;57.89;99681.16;5061449;28;45359;-44
2022/12/14 11:11:57;;;;;;;;;54.00;43.25;;;;;7.16;57.96;99681.97;5061171;28;45223;-45
2022/12/14 11:14:23;;;;;;;;;55.50;45.25;;;;;7.15;57.77;99682.84;5061629;28;45251;-47
2022/12/14 11:16:48;;;;;;;;;53.50;42.25;;;;;7.19;57.74;99680.22;5061276;28;45482;-44
2022/12/14 11:19:17;;;;;;;;;56.25;42.00;;;;;7.19;57.41;99688.91;5060905;28;46177;-45
2022/12/14 11:21:43;;;;;;;;;55.25;45.25;;;;;7.19;57.51;99690.66;5061150;28;45378;-46
2022/12/14 11:24:24;;;;;;;;;53.75;42.75;;;;;7.15;57.42;99680.25;5061376;28;45354;-45
2022/12/14 11:26:53;;;;;;;;;56.00;41.00;;;;;7.13;57.18;99679.44;5061142;28;45170;-45
2022/12/14 11:29:29;;;;;;;;;52.50;43.75;;;;;7.07;57.23;99683.88;5060822;28;45383;-46
2022/12/14 11:31:54;;;;;;;;;55.00;44.00;;;;;7.04;57.01;99690.00;5056397;28;45399;-47
2022/12/14 11:34:33;;;;;;;;;55.00;42.75;;;;;7.01;57.15;99682.25;5060924;28;45458;-46
2022/12/14 11:37:23;;;;;;;;;49.50;41.75;;;;;6.97;57.22;99678.81;5076826;28;45285;-45
2022/12/14 11:39:52;;;;;;;;;62.00;48.00;;;;;6.95;57.28;99671.88;5060857;28;45390;-47
2022/12/14 11:42:19;;;;;;;;;51.25;41.75;;;;;6.91;56.93;99675.44;5060919;28;45231;-45
2022/12/14 11:44:47;;;;;;;;;56.25;45.50;;;;;6.90;57.04;99685.00;5061156;28;45266;-45
2022/12/14 11:47:16;;;;;;;;;56.75;44.75;;;;;6.89;56.99;99704.19;5060941;28;45437;-48
2022/12/14 11:49:45;;;;;;;;;55.50;44.75;;;;;6.90;56.73;99690.25;5060481;28;46410;-47
2022/12/14 11:52:17;;;;;;;;;58.00;44.50;;;;;6.93;56.95;99695.44;5060642;28;45308;-46